Time;durP1;ratioP1;P1;durP2;ratioP2;P2;SDS_P1;SDS_P2;PMS_P1;PMS_P2;Temp;Humidity;BMP_temperature;BMP_pressure;BME280_temperature;BME280_humidity;BME280_pressure;Samples;Min_cycle;Max_cycle;Signal;HPM_P1;HPM_P2
2022/04/13 00:00:58;;;;;;;8.75;4.43;;;;;;;13.57;57.87;98523.84;2618346;54;20031;-68
2022/04/13 00:03:31;;;;;;;5.50;3.72;;;;;;;13.56;57.87;98529.41;2618401;54;20034;-69
2022/04/13 00:06:01;;;;;;;6.53;3.92;;;;;;;13.47;58.53;98520.91;2618284;54;20626;-67
2022/04/13 00:08:30;;;;;;;3.85;3.42;;;;;;;13.36;59.05;98524.25;2618005;54;20058;-68
2022/04/13 00:11:00;;;;;;;7.80;3.70;;;;;;;13.36;59.30;98527.72;2618733;54;20053;-68
2022/04/13 00:13:30;;;;;;;7.72;4.43;;;;;;;13.37;58.73;98531.19;2618480;54;20035;-68
2022/04/13 00:16:00;;;;;;;5.72;4.20;;;;;;;13.40;59.00;98522.78;2618360;54;20034;-67
2022/04/13 00:18:32;;;;;;;5.35;4.03;;;;;;;13.36;58.76;98534.88;2617849;54;20037;-68
2022/04/13 00:21:02;;;;;;;6.07;3.85;;;;;;;13.41;58.83;98529.72;2618438;54;20546;-67
2022/04/13 00:23:32;;;;;;;4.13;3.47;;;;;;;13.49;58.22;98529.44;2619337;39;20448;-67
2022/04/13 00:26:01;;;;;;;6.20;3.58;;;;;;;13.46;58.31;98531.72;2618686;39;20420;-67
2022/04/13 00:28:31;;;;;;;7.40;4.30;;;;;;;13.46;58.43;98527.22;2619227;54;20034;-68
2022/04/13 00:31:01;;;;;;;5.20;3.50;;;;;;;13.35;58.58;98535.91;2623731;54;20041;-67
2022/04/13 00:33:33;;;;;;;6.85;3.95;;;;;;;13.35;58.93;98530.59;2622386;46;20061;-66
2022/04/13 00:36:03;;;;;;;3.90;3.60;;;;;;;13.35;58.85;98527.94;2621119;54;20049;-67
2022/04/13 00:38:33;;;;;;;6.95;4.07;;;;;;;13.29;59.12;98526.97;2620915;39;20447;-67
2022/04/13 00:41:02;;;;;;;4.38;3.65;;;;;;;13.28;59.58;98528.00;2621322;39;20419;-67
2022/04/13 00:43:32;;;;;;;7.38;4.00;;;;;;;13.31;58.95;98532.06;2621422;54;20027;-67
2022/04/13 00:46:02;;;;;;;6.63;4.60;;;;;;;13.16;59.40;98531.53;2621164;39;20419;-67
2022/04/13 00:48:37;;;;;;;7.38;4.25;;;;;;;13.04;59.95;98536.72;2620875;54;20042;-67
2022/04/13 00:51:07;;;;;;;10.07;4.55;;;;;;;13.14;59.82;98531.72;2620631;54;20026;-68
2022/04/13 00:53:37;;;;;;;7.28;3.83;;;;;;;13.14;60.05;98537.03;2621035;54;20055;-67
2022/04/13 00:56:07;;;;;;;6.63;4.72;;;;;;;13.11;59.75;98527.69;2620400;54;20027;-68
2022/04/13 00:58:42;;;;;;;7.72;4.25;;;;;;;12.94;60.05;98528.41;2619267;54;20657;-68
2022/04/13 01:01:11;;;;;;;9.10;4.13;;;;;;;12.81;60.75;98527.47;2620852;54;20043;-67
2022/04/13 01:03:46;;;;;;;7.25;4.35;;;;;;;12.92;61.01;98530.47;2622197;39;20111;-68
2022/04/13 01:06:17;;;;;;;8.15;4.13;;;;;;;12.92;60.69;98525.16;2622018;54;20038;-67
2022/04/13 01:08:50;;;;;;;10.05;5.07;;;;;;;12.82;60.64;98521.16;2620890;54;20034;-67
2022/04/13 01:11:20;;;;;;;6.83;3.83;;;;;;;12.72;60.47;98517.31;2622541;54;20034;-66
2022/04/13 01:13:53;;;;;;;7.97;3.50;;;;;;;12.64;60.76;98513.09;2622801;54;20807;-67
2022/04/13 01:16:24;;;;;;;6.20;3.67;;;;;;;12.63;60.97;98527.38;2622817;54;20027;-68
2022/04/13 01:18:58;;;;;;;9.73;4.82;;;;;;;12.79;60.59;98528.72;2621075;54;20539;-67
2022/04/13 01:21:45;;;;;;;10.75;4.53;;;;;;;12.86;60.28;98529.50;2618962;54;20038;-69
2022/04/13 01:24:18;;;;;;;10.88;5.13;;;;;;;12.87;60.76;98526.63;2618614;54;20038;-67
2022/04/13 01:26:49;;;;;;;8.65;4.50;;;;;;;12.96;60.50;98535.13;2618321;54;20041;-67
2022/04/13 01:29:18;;;;;;;12.00;4.88;;;;;;;13.02;59.99;98528.16;2618295;54;20594;-67
2022/04/13 01:31:49;;;;;;;9.45;4.10;;;;;;;13.08;60.22;98537.91;2618102;54;20030;-69
2022/04/13 01:34:19;;;;;;;7.28;4.47;;;;;;;13.11;59.82;98537.50;2618078;54;20038;-67
2022/04/13 01:36:48;;;;;;;7.07;3.30;;;;;;;13.09;59.29;98540.34;2618495;39;20444;-68
2022/04/13 01:39:21;;;;;;;6.07;3.17;;;;;;;13.08;59.50;98543.22;2618355;39;20401;-67
2022/04/13 01:41:50;;;;;;;7.45;3.53;;;;;;;13.05;59.59;98547.09;2617752;39;20437;-67
2022/04/13 01:44:20;;;;;;;6.32;3.28;;;;;;;13.02;59.46;98547.56;2617883;54;20034;-67
2022/04/13 01:46:50;;;;;;;7.40;4.50;;;;;;;12.93;59.21;98551.47;2617674;54;20041;-68
2022/04/13 01:49:20;;;;;;;7.13;4.03;;;;;;;12.83;59.75;98553.78;2618657;54;20034;-67
2022/04/13 01:51:49;;;;;;;7.38;4.15;;;;;;;12.77;59.96;98563.41;2620114;54;20046;-67
2022/04/13 01:54:21;;;;;;;5.93;3.72;;;;;;;12.80;60.26;98572.78;2619350;54;20034;-67
2022/04/13 01:56:51;;;;;;;4.82;3.70;;;;;;;12.75;60.17;98567.31;2619526;39;20443;-68
2022/04/13 01:59:21;;;;;;;6.82;4.45;;;;;;;12.70;60.51;98567.94;2620431;39;20447;-67
2022/04/13 02:01:50;;;;;;;4.45;3.78;;;;;;;12.69;60.30;98574.25;2619783;54;20033;-68
2022/04/13 02:04:21;;;;;;;5.20;3.72;;;;;;;12.64;60.71;98579.38;2619893;54;20085;-69
2022/04/13 02:06:52;;;;;;;5.95;4.40;;;;;;;12.60;60.86;98576.34;2620979;54;20042;-68
2022/04/13 02:09:24;;;;;;;7.25;3.90;;;;;;;12.46;61.27;98573.97;2619102;54;20562;-67
2022/04/13 02:11:54;;;;;;;10.35;4.05;;;;;;;12.40;62.03;98579.06;2622029;54;20045;-69
2022/04/13 02:14:23;;;;;;;6.45;3.92;;;;;;;12.30;62.44;98578.69;2624147;39;20490;-68
2022/04/13 02:16:53;;;;;;;6.80;4.47;;;;;;;12.25;62.17;98577.72;2617198;54;20543;-68
2022/04/13 02:19:23;;;;;;;6.20;4.00;;;;;;;12.22;62.60;98578.13;2618360;39;20431;-68
2022/04/13 02:21:52;;;;;;;6.95;4.43;;;;;;;12.27;62.51;98584.41;2617802;54;20104;-68
2022/04/13 02:24:24;;;;;;;6.25;4.00;;;;;;;12.30;62.09;98586.66;2617916;54;20039;-68
2022/04/13 02:26:54;;;;;;;5.78;4.40;;;;;;;12.33;62.32;98585.44;2617180;54;20031;-68
2022/04/13 02:29:24;;;;;;;7.88;4.07;;;;;;;12.36;62.26;98585.81;2617453;47;20033;-67
2022/04/13 02:31:53;;;;;;;5.72;3.88;;;;;;;12.25;62.17;98581.19;2617909;54;20030;-68
2022/04/13 02:34:23;;;;;;;5.72;4.40;;;;;;;12.18;62.29;98584.84;2617879;54;20031;-67
2022/04/13 02:36:53;;;;;;;5.32;3.90;;;;;;;12.05;62.51;98580.41;2617530;54;20038;-69
2022/04/13 02:39:25;;;;;;;7.03;4.00;;;;;;;11.94;63.08;98591.63;2617866;54;20042;-68
2022/04/13 02:41:54;;;;;;;6.95;4.03;;;;;;;11.93;63.61;98590.81;2617896;54;20026;-68
2022/04/13 02:44:24;;;;;;;6.25;3.97;;;;;;;12.01;63.74;98590.59;2618272;54;20038;-68
2022/04/13 02:46:54;;;;;;;5.40;3.90;;;;;;;12.03;62.88;98587.75;2624370;54;20030;-68
2022/04/13 02:49:23;;;;;;;4.32;3.90;;;;;;;11.98;63.40;98593.66;2625306;54;20033;-69
2022/04/13 02:51:53;;;;;;;6.30;4.65;;;;;;;11.95;63.00;98591.41;2625151;54;20042;-69
2022/04/13 02:54:25;;;;;;;5.88;4.45;;;;;;;11.86;63.02;98590.00;2624432;54;20039;-68
2022/04/13 02:56:55;;;;;;;5.68;3.97;;;;;;;11.73;63.28;98590.00;2616674;54;20641;-67
2022/04/13 02:59:24;;;;;;;9.48;3.97;;;;;;;11.58;63.89;98585.72;2617611;54;20079;-67
2022/04/13 03:01:54;;;;;;;8.98;3.53;;;;;;;11.61;64.15;98587.97;2618306;39;20082;-68
2022/04/13 03:04:32;;;;;;;5.38;4.07;;;;;;;11.65;64.19;98593.66;2618281;54;20026;-68
2022/04/13 03:07:02;;;;;;;8.63;4.15;;;;;;;11.58;64.02;98587.56;2617476;54;20050;-68
2022/04/13 03:09:34;;;;;;;4.43;4.00;;;;;;;11.50;64.37;98588.56;2618099;54;20031;-67
2022/04/13 03:12:03;;;;;;;5.22;4.65;;;;;;;11.46;64.49;98597.94;2618386;54;20046;-67
2022/04/13 03:14:33;;;;;;;8.20;4.95;;;;;;;11.39;64.29;98597.13;2618982;54;20041;-66
2022/04/13 03:17:03;;;;;;;6.40;4.35;;;;;;;11.35;64.61;98587.97;2617933;54;20026;-68
2022/04/13 03:19:32;;;;;;;7.53;4.65;;;;;;;11.35;65.20;98599.38;2618199;54;20019;-66
2022/04/13 03:22:02;;;;;;;8.13;5.03;;;;;;;11.35;65.13;98587.97;2618903;54;20039;-68
2022/04/13 03:24:34;;;;;;;8.80;4.75;;;;;;;11.36;65.01;98592.25;2619623;54;20543;-67
2022/04/13 03:27:04;;;;;;;7.25;4.00;;;;;;;11.37;64.82;98601.81;2619104;54;20038;-68
2022/04/13 03:29:34;;;;;;;9.63;4.00;;;;;;;11.43;64.66;98600.16;2619518;54;20038;-68
2022/04/13 03:32:04;;;;;;;5.05;3.75;;;;;;;11.37;64.72;98601.81;2619587;54;20039;-68
2022/04/13 03:34:33;;;;;;;5.82;3.85;;;;;;;11.30;64.67;98593.03;2618581;54;20018;-67
2022/04/13 03:37:03;;;;;;;4.03;3.38;;;;;;;11.26;64.99;98600.56;2617789;54;20027;-67
2022/04/13 03:39:36;;;;;;;6.75;3.83;;;;;;;11.25;64.95;98595.47;2618032;54;20031;-68
2022/04/13 03:42:06;;;;;;;4.65;3.50;;;;;;;11.31;64.84;98592.84;2617885;54;20026;-68
2022/04/13 03:44:35;;;;;;;6.07;4.15;;;;;;;11.37;64.53;98594.66;2617626;47;20528;-68
2022/04/13 03:47:06;;;;;;;4.63;3.90;;;;;;;11.29;64.57;98594.88;2617381;54;20033;-67
2022/04/13 03:49:36;;;;;;;6.60;4.38;;;;;;;11.25;64.78;98588.34;2617796;54;20033;-67
2022/04/13 03:52:06;;;;;;;8.13;4.90;;;;;;;11.21;64.95;98594.25;2618831;54;20026;-67
2022/04/13 03:54:39;;;;;;;8.45;4.85;;;;;;;11.24;65.25;98592.03;2619382;54;20019;-68
2022/04/13 03:57:09;;;;;;;8.23;4.30;;;;;;;11.33;65.40;98595.28;2619106;54;20039;-68
2022/04/13 03:59:38;;;;;;;10.93;5.55;;;;;;;11.38;64.92;98596.28;2618616;54;20792;-67
2022/04/13 04:02:08;;;;;;;10.32;5.38;;;;;;;11.39;65.14;98591.84;2619924;54;20023;-67
2022/04/13 04:04:37;;;;;;;9.13;5.18;;;;;;;11.45;64.77;98596.31;2619884;54;20035;-67
2022/04/13 04:07:07;;;;;;;6.63;4.43;;;;;;;11.49;64.75;98586.94;2621473;54;20034;-67
2022/04/13 04:09:39;;;;;;;6.78;4.32;;;;;;;11.52;64.12;98598.97;2625773;39;20459;-68
2022/04/13 04:12:10;;;;;;;5.75;4.45;;;;;;;11.34;64.26;98591.63;2621838;39;20447;-67
2022/04/13 04:14:40;;;;;;;6.30;4.05;;;;;;;11.13;64.92;98597.91;2621454;54;20035;-68
2022/04/13 04:17:09;;;;;;;6.28;4.72;;;;;;;11.05;65.30;98596.25;2618663;54;20592;-64
2022/04/13 04:19:39;;;;;;;9.70;4.55;;;;;;;10.96;65.54;98594.00;2618156;54;20578;-64
2022/04/13 04:22:09;;;;;;;9.23;4.72;;;;;;;10.84;66.35;98589.28;2618161;54;20558;-64
2022/04/13 04:24:41;;;;;;;7.97;5.32;;;;;;;10.89;66.37;98593.97;2617924;54;20048;-64
2022/04/13 04:27:10;;;;;;;8.85;5.03;;;;;;;10.92;66.23;98593.59;2616864;54;20040;-64
2022/04/13 04:29:40;;;;;;;9.57;5.35;;;;;;;10.86;65.82;98589.09;2620454;54;20034;-63
2022/04/13 04:32:10;;;;;;;7.60;5.00;;;;;;;10.86;66.31;98597.03;2621039;54;20562;-64
2022/04/13 04:34:40;;;;;;;7.30;4.90;;;;;;;10.87;66.56;98596.03;2619941;54;20037;-63
2022/04/13 04:37:10;;;;;;;7.22;4.45;;;;;;;10.86;66.40;98594.41;2618315;54;20039;-63
2022/04/13 04:39:42;;;;;;;8.25;4.65;;;;;;;10.95;66.21;98595.84;2619241;39;20427;-64
2022/04/13 04:42:11;;;;;;;7.47;5.05;;;;;;;10.95;66.16;98592.38;2618914;54;20027;-64
2022/04/13 04:44:41;;;;;;;8.32;4.53;;;;;;;10.96;65.71;98599.28;2618776;54;20026;-65
2022/04/13 04:47:10;;;;;;;8.43;4.50;;;;;;;10.89;65.88;98597.44;2618298;54;20057;-64
2022/04/13 04:49:40;;;;;;;5.78;4.47;;;;;;;10.81;65.49;98600.25;2618192;54;20042;-63
2022/04/13 04:52:10;;;;;;;7.45;4.68;;;;;;;10.71;66.20;98610.41;2618677;54;20037;-64
2022/04/13 04:54:42;;;;;;;12.10;5.55;;;;;;;10.66;66.23;98616.28;2618089;46;20035;-64
2022/04/13 04:57:11;;;;;;;12.52;5.20;;;;;;;10.66;66.46;98620.75;2618688;39;20450;-63
2022/04/13 04:59:41;;;;;;;8.30;4.90;;;;;;;10.55;66.63;98614.19;2618661;54;20031;-64
2022/04/13 05:02:11;;;;;;;11.75;4.90;;;;;;;10.48;66.61;98613.34;2618492;54;20042;-64
2022/04/13 05:04:40;;;;;;;9.70;5.43;;;;;;;10.40;67.13;98614.31;2618834;54;20037;-63
2022/04/13 05:07:10;;;;;;;9.30;5.30;;;;;;;10.58;67.40;98619.09;2618370;54;20043;-63
2022/04/13 05:09:42;;;;;;;11.60;5.68;;;;;;;10.83;66.71;98626.53;2619084;39;20446;-64
2022/04/13 05:12:13;;;;;;;8.70;5.88;;;;;;;11.01;66.26;98628.59;2618538;54;20030;-65
2022/04/13 05:14:42;;;;;;;13.35;5.18;;;;;;;11.01;66.07;98634.69;2618697;54;20057;-63
2022/04/13 05:17:12;;;;;;;9.23;5.20;;;;;;;11.12;66.09;98642.06;2618096;54;20034;-64
2022/04/13 05:19:41;;;;;;;12.48;5.50;;;;;;;11.21;65.56;98650.63;2618702;54;20026;-63
2022/04/13 05:22:11;;;;;;;12.05;5.03;;;;;;;11.32;65.78;98647.41;2619234;39;20431;-64
2022/04/13 05:24:44;;;;;;;10.32;5.00;;;;;;;11.46;65.40;98652.72;2618529;54;20030;-64
2022/04/13 05:27:14;;;;;;;9.02;3.97;;;;;;;11.48;64.18;98659.44;2618146;54;20035;-64
2022/04/13 05:29:44;;;;;;;14.93;7.93;;;;;;;11.30;64.08;98649.41;2620013;39;20411;-64
2022/04/13 05:32:15;;;;;;;16.00;5.20;;;;;;;11.02;64.99;98652.22;2618851;54;20041;-64
2022/04/13 05:34:44;;;;;;;13.52;5.75;;;;;;;10.96;65.61;98660.13;2619824;39;20430;-63
2022/04/13 05:37:14;;;;;;;20.00;10.35;;;;;;;11.18;65.23;98660.78;2618706;39;20438;-63
2022/04/13 05:39:47;;;;;;;12.35;9.27;;;;;;;11.40;65.11;98668.38;2618459;54;20027;-64
2022/04/13 05:42:17;;;;;;;16.08;7.43;;;;;;;11.58;64.82;98678.38;2618117;47;20554;-64
2022/04/13 05:44:47;;;;;;;10.35;4.70;;;;;;;11.75;63.73;98672.69;2618432;54;20034;-64
2022/04/13 05:47:17;;;;;;;11.13;5.18;;;;;;;11.74;63.48;98669.22;2618396;54;20053;-64
2022/04/13 05:49:47;;;;;;;11.57;5.82;;;;;;;11.86;63.90;98680.88;2618601;54;20036;-64
2022/04/13 05:52:16;;;;;;;13.18;6.47;;;;;;;11.90;63.66;98684.75;2618707;54;20041;-64
2022/04/13 05:54:49;;;;;;;9.43;5.15;;;;;;;12.01;63.74;98670.09;2618495;54;20042;-64
2022/04/13 05:57:18;;;;;;;11.05;4.45;;;;;;;11.83;63.58;98668.03;2618657;54;20153;-63
2022/04/13 05:59:48;;;;;;;11.90;4.97;;;;;;;11.96;63.59;98672.53;2617647;47;20571;-64
2022/04/13 06:02:17;;;;;;;10.60;5.45;;;;;;;12.03;63.33;98662.72;2618521;54;20022;-64
2022/04/13 06:04:47;;;;;;;13.25;5.80;;;;;;;12.00;63.41;98668.47;2617754;47;20023;-63
2022/04/13 06:07:17;;;;;;;8.45;5.07;;;;;;;12.02;63.17;98655.00;2617657;54;20041;-64
2022/04/13 06:09:49;;;;;;;12.48;5.10;;;;;;;11.93;63.15;98616.50;2618650;54;20159;-64
2022/04/13 06:12:24;;;;;;;8.82;5.55;;;;;;;11.81;63.55;98624.22;2618826;39;20411;-64
2022/04/13 06:14:54;;;;;;;7.57;5.32;;;;;;;11.87;63.84;98621.56;2618573;54;20030;-64
2022/04/13 06:17:23;;;;;;;14.23;7.25;;;;;;;12.01;63.45;98640.94;2618127;54;20031;-64
2022/04/13 06:19:53;;;;;;;8.05;5.93;;;;;;;12.09;63.53;98695.56;2618454;54;20034;-64
2022/04/13 06:22:22;;;;;;;12.20;6.00;;;;;;;12.06;63.03;98723.25;2617904;47;20575;-64
2022/04/13 06:24:55;;;;;;;13.25;5.00;;;;;;;12.10;63.02;98708.59;2619180;39;20400;-63
2022/04/13 06:27:24;;;;;;;10.75;5.10;;;;;;;12.15;62.60;98700.03;2618286;39;20446;-64
2022/04/13 06:29:54;;;;;;;9.55;5.03;;;;;;;12.30;62.27;98713.88;2618620;54;20027;-64
2022/04/13 06:32:23;;;;;;;15.25;5.53;;;;;;;12.49;62.18;98706.09;2618984;39;20442;-63
2022/04/13 06:34:53;;;;;;;10.18;4.65;;;;;;;12.54;61.75;98701.81;2618877;39;20448;-63
2022/04/13 06:37:22;;;;;;;9.27;4.20;;;;;;;12.69;61.12;98706.03;2618418;39;20456;-63
2022/04/13 06:39:55;;;;;;;14.05;5.00;;;;;;;12.86;61.15;98712.53;2618465;54;20061;-63
2022/04/13 06:42:24;;;;;;;11.32;4.47;;;;;;;13.03;60.45;98710.22;2618637;54;20058;-63
2022/04/13 06:44:56;;;;;;;9.80;4.65;;;;;;;13.09;60.27;98707.53;2618690;54;20038;-63
2022/04/13 06:47:25;;;;;;;9.35;5.03;;;;;;;13.13;59.62;98719.34;2617972;54;20057;-63
2022/04/13 06:49:55;;;;;;;8.77;5.22;;;;;;;13.12;59.79;98727.53;2618627;54;20033;-63
2022/04/13 06:52:25;;;;;;;9.15;4.53;;;;;;;13.10;59.96;98735.72;2618280;54;20159;-63
2022/04/13 06:54:59;;;;;;;7.13;4.13;;;;;;;13.14;59.78;98736.94;2618480;54;20034;-64
2022/04/13 06:57:30;;;;;;;15.27;7.30;;;;;;;13.34;60.07;98742.16;2618017;54;20054;-63
2022/04/13 07:00:02;;;;;;;13.25;5.53;;;;;;;13.51;59.75;98731.88;2618388;54;20038;-63
2022/04/13 07:02:32;;;;;;;7.68;4.50;;;;;;;13.67;59.27;98738.50;2618549;54;20034;-63
2022/04/13 07:05:02;;;;;;;12.15;5.43;;;;;;;13.79;58.62;98731.47;2618485;47;20046;-63
2022/04/13 07:07:33;;;;;;;13.45;5.45;;;;;;;13.86;58.67;98740.22;2617844;54;20060;-64
2022/04/13 07:10:05;;;;;;;11.40;5.07;;;;;;;13.99;57.88;98739.31;2618425;54;20128;-64
2022/04/13 07:12:42;;;;;;;7.70;4.82;;;;;;;14.19;57.79;98741.00;2617750;54;20051;-64
2022/04/13 07:15:12;;;;;;;9.70;4.45;;;;;;;14.37;57.27;98749.84;2618515;54;20027;-63
2022/04/13 07:17:42;;;;;;;7.68;4.10;;;;;;;14.52;56.73;98748.72;2617898;47;20041;-63
2022/04/13 07:20:13;;;;;;;7.78;3.78;;;;;;;14.61;56.33;98752.72;2618587;54;20031;-63
2022/04/13 07:22:46;;;;;;;7.78;3.67;;;;;;;14.74;55.30;98757.94;2618502;54;20034;-62
2022/04/13 07:25:19;;;;;;;8.20;4.28;;;;;;;14.81;54.95;98760.50;2618534;54;20053;-63
2022/04/13 07:27:50;;;;;;;16.05;4.75;;;;;;;14.95;54.57;98756.69;2618254;54;20038;-63
2022/04/13 07:30:20;;;;;;;7.80;5.30;;;;;;;15.06;54.06;98766.59;2618243;54;20022;-63
2022/04/13 07:32:54;;;;;;;10.07;5.00;;;;;;;15.22;53.82;98767.00;2619082;54;20038;-63
2022/04/13 07:35:25;;;;;;;13.35;4.85;;;;;;;15.38;53.31;98768.25;2618725;54;20035;-63
2022/04/13 07:37:55;;;;;;;8.68;4.40;;;;;;;15.54;52.23;98760.44;2618437;54;20038;-63
2022/04/13 07:40:27;;;;;;;8.98;3.95;;;;;;;15.61;52.01;98765.69;2618518;54;20095;-63
2022/04/13 07:42:57;;;;;;;7.50;3.57;;;;;;;15.74;51.32;98768.19;2618506;54;20045;-63
2022/04/13 07:45:27;;;;;;;10.07;3.88;;;;;;;15.83;51.34;98766.03;2618786;54;20042;-64
2022/04/13 07:47:57;;;;;;;7.70;3.03;;;;;;;15.89;50.63;98762.47;2618411;54;20039;-63
2022/04/13 07:50:27;;;;;;;7.88;3.15;;;;;;;15.96;49.39;98770.34;2620188;54;20035;-63
2022/04/13 07:52:57;;;;;;;5.93;2.55;;;;;;;16.04;48.46;98764.69;2621827;54;20026;-64
2022/04/13 07:55:30;;;;;;;8.02;4.10;;;;;;;16.18;48.26;98768.78;2619301;47;20022;-64
2022/04/13 07:57:59;;;;;;;4.13;2.47;;;;;;;16.22;47.24;98763.81;2618322;54;20046;-64
2022/04/13 08:00:29;;;;;;;4.78;2.50;;;;;;;16.35;47.36;98764.38;2618646;54;20026;-64
2022/04/13 08:02:59;;;;;;;4.30;2.40;;;;;;;16.47;45.59;98758.25;2618435;54;20034;-64
2022/04/13 08:05:29;;;;;;;5.60;2.17;;;;;;;16.52;44.67;98761.84;2619609;39;20400;-64
2022/04/13 08:07:59;;;;;;;5.63;2.63;;;;;;;16.60;43.57;98755.34;2618734;54;20034;-64
2022/04/13 08:10:31;;;;;;;6.38;2.13;;;;;;;16.76;43.29;98760.00;2619641;54;20556;-64
2022/04/13 08:13:07;;;;;;;5.57;3.38;;;;;;;16.93;42.92;98751.28;2621717;54;20171;-64
2022/04/13 08:15:36;;;;;;;6.00;4.60;;;;;;;17.05;41.98;98749.41;2623586;54;20050;-64
2022/04/13 08:18:06;;;;;;;10.02;2.92;;;;;;;17.07;42.50;98744.66;2622817;47;20573;-64
2022/04/13 08:20:36;;;;;;;7.38;2.83;;;;;;;17.18;42.12;98746.47;2623541;54;20039;-63
2022/04/13 08:23:06;;;;;;;5.70;2.22;;;;;;;17.28;42.17;98744.00;2621691;54;20066;-64
2022/04/13 08:25:38;;;;;;;6.45;3.40;;;;;;;17.31;42.08;98748.06;2619496;54;20027;-64
2022/04/13 08:28:08;;;;;;;6.70;2.90;;;;;;;17.40;41.48;98746.66;2618943;54;20026;-64
2022/04/13 08:30:38;;;;;;;9.93;4.07;;;;;;;17.40;41.46;98751.19;2619658;39;20416;-64
2022/04/13 08:33:13;;;;;;;5.15;3.30;;;;;;;17.46;41.20;98759.03;2619075;54;20057;-64
2022/04/13 08:35:43;;;;;;;5.45;3.72;;;;;;;17.51;41.58;98753.81;2618874;54;20035;-64
2022/04/13 08:38:12;;;;;;;8.75;3.33;;;;;;;17.60;41.59;98767.59;2618670;54;20053;-64
2022/04/13 08:41:00;;;;;;;8.65;3.63;;;;;;;17.68;41.27;98761.88;2618625;54;20056;-64
2022/04/13 08:43:34;;;;;;;8.43;2.00;;;;;;;17.71;40.52;98769.41;2619516;54;20038;-64
2022/04/13 08:46:08;;;;;;;6.82;3.03;;;;;;;17.84;40.42;98757.66;2619390;47;20026;-65
2022/04/13 08:48:40;;;;;;;;;;;;;;;17.91;40.51;98758.28;2619324;54;20082;-63
2022/04/13 08:51:22;;;;;;;10.73;4.72;;;;;;;18.09;40.52;98757.25;2619002;54;19946;-65
2022/04/13 08:54:04;;;;;;;7.00;3.60;;;;;;;18.24;39.61;98762.03;2619151;54;20038;-63
2022/04/13 08:56:38;;;;;;;8.30;2.85;;;;;;;18.29;38.94;98757.59;2618882;54;20031;-64
2022/04/13 08:59:11;;;;;;;;;;;;;;;18.31;39.55;98754.66;2618845;47;20041;-63
2022/04/13 09:01:49;;;;;;;8.00;3.72;;;;;;;18.46;38.66;98754.09;2618849;54;19946;-63
2022/04/13 09:04:23;;;;;;;6.95;2.60;;;;;;;18.50;38.31;98750.69;2618751;54;20551;-64
2022/04/13 09:06:53;;;;;;;4.20;2.58;;;;;;;18.52;38.33;98755.78;2618531;54;20037;-64
2022/04/13 09:09:40;;;;;;;5.18;2.55;;;;;;;18.43;38.12;98750.03;2618132;51;20034;-64
2022/04/13 09:12:14;;;;;;;7.95;3.00;;;;;;;18.38;38.13;98754.50;2618412;47;20034;-64
2022/04/13 09:14:45;;;;;;;6.35;2.55;;;;;;;18.32;38.42;98759.75;2618589;54;20039;-64
2022/04/13 09:17:15;;;;;;;4.57;2.50;;;;;;;18.36;38.42;98754.75;2618239;54;20027;-64
2022/04/13 09:19:47;;;;;;;15.23;10.82;;;;;;;18.39;38.53;98751.59;2618898;54;20038;-63
2022/04/13 09:22:18;;;;;;;4.75;3.42;;;;;;;18.41;38.64;98751.31;2618211;46;20558;-65
2022/04/13 09:24:49;;;;;;;7.68;4.10;;;;;;;18.48;38.36;98751.97;2618750;54;20026;-65
2022/04/13 09:27:22;;;;;;;8.07;3.15;;;;;;;18.59;38.68;98750.28;2618309;54;20041;-63
2022/04/13 09:29:52;;;;;;;7.50;3.53;;;;;;;18.65;38.31;98754.63;2618864;54;20031;-63
2022/04/13 09:32:23;;;;;;;6.25;2.70;;;;;;;18.62;38.24;98757.81;2619302;39;20439;-64
2022/04/13 09:34:54;;;;;;;6.50;2.28;;;;;;;18.59;38.30;98759.09;2618717;54;20033;-63
2022/04/13 09:37:24;;;;;;;10.73;2.70;;;;;;;18.66;38.21;98753.59;2618482;54;20543;-64
2022/04/13 09:39:54;;;;;;;9.73;3.03;;;;;;;18.74;38.31;98747.84;2619131;54;20038;-63
2022/04/13 09:42:27;;;;;;;12.82;6.88;;;;;;;18.87;38.04;98755.53;2618875;54;20031;-64
2022/04/13 09:44:58;;;;;;;7.10;2.63;;;;;;;19.04;37.60;98760.81;2619361;54;20547;-64
2022/04/13 09:47:33;;;;;;;6.88;2.08;;;;;;;19.10;37.56;98761.69;2618566;54;20570;-65
2022/04/13 09:50:03;;;;;;;5.55;3.00;;;;;;;19.11;37.57;98758.78;2618859;54;20042;-64
2022/04/13 09:52:35;;;;;;;9.82;3.63;;;;;;;19.23;38.00;98750.63;2619079;54;20043;-63
2022/04/13 09:55:06;;;;;;;4.90;1.88;;;;;;;19.33;37.42;98747.25;2619437;54;20602;-63
2022/04/13 09:57:39;;;;;;;8.13;2.30;;;;;;;19.38;37.45;98749.97;2619046;54;20037;-63
2022/04/13 10:00:11;;;;;;;5.93;3.33;;;;;;;19.37;37.21;98743.00;2619481;54;20042;-66
2022/04/13 10:02:43;;;;;;;9.23;3.65;;;;;;;19.54;36.95;98747.19;2619100;54;20547;-64
2022/04/13 10:05:24;;;;;;;5.15;2.55;;;;;;;19.66;36.24;98732.88;2619380;54;20558;-63
2022/04/13 10:08:04;;;;;;;5.47;3.78;;;;;;;19.69;36.89;98741.22;2618756;54;20039;-64
2022/04/13 10:10:33;;;;;;;4.47;2.90;;;;;;;19.70;36.67;98733.97;2619369;39;20442;-65
2022/04/13 10:13:06;;;;;;;8.13;2.33;;;;;;;19.71;36.66;98741.75;2618742;54;20035;-64
2022/04/13 10:15:36;;;;;;;5.50;2.08;;;;;;;19.65;36.75;98740.13;2618951;54;20037;-63
2022/04/13 10:18:06;;;;;;;4.68;1.98;;;;;;;19.64;36.98;98749.22;2617015;54;20154;-68
2022/04/13 10:20:47;;;;;;;4.55;2.17;;;;;;;19.74;36.79;98743.16;2617349;51;20034;-67
2022/04/13 10:23:17;;;;;;;5.35;2.05;;;;;;;19.72;36.43;98739.91;2617356;54;20035;-67
2022/04/13 10:25:47;;;;;;;7.50;2.88;;;;;;;19.75;36.40;98739.38;2617862;54;20539;-67
2022/04/13 10:28:26;;;;;;;3.42;1.90;;;;;;;19.78;37.28;98754.97;2617117;54;20038;-68
2022/04/13 10:30:55;;;;;;;5.20;2.00;;;;;;;19.91;37.27;98745.72;2617963;54;20026;-67
2022/04/13 10:33:25;;;;;;;6.45;2.00;;;;;;;20.02;36.65;98742.06;2618031;54;20667;-67
2022/04/13 10:35:56;;;;;;;9.02;2.70;;;;;;;20.18;36.70;98743.00;2617259;47;20142;-68
2022/04/13 10:38:26;;;;;;;8.18;3.00;;;;;;;20.36;36.04;98742.59;2616861;54;20575;-66
2022/04/13 10:40:57;;;;;;;9.60;2.42;;;;;;;20.54;36.16;98738.72;2618045;54;20034;-67
2022/04/13 10:43:30;;;;;;;6.80;2.47;;;;;;;20.74;36.45;98736.16;2617842;54;20034;-67
2022/04/13 10:46:00;;;;;;;11.63;2.55;;;;;;;20.96;36.23;98740.56;2617856;54;20037;-68
2022/04/13 10:48:34;;;;;;;8.60;2.63;;;;;;;21.16;35.29;98740.66;2621015;54;20030;-67
2022/04/13 10:51:09;;;;;;;;;;;;;;;21.24;35.13;98734.78;2623610;54;20038;-67
2022/04/13 10:53:46;;;;;;;7.00;2.60;;;;;;;21.34;35.12;98736.72;2625153;54;19947;-71
2022/04/13 10:56:22;;;;;;;9.63;2.20;;;;;;;21.47;35.02;98743.47;2621472;54;20026;-67
2022/04/13 10:59:02;;;;;;;3.95;2.53;;;;;;;21.60;34.92;98742.97;2620076;54;20581;-67
2022/04/13 11:01:38;;;;;;;4.07;2.38;;;;;;;21.71;34.52;98741.09;2619747;54;20033;-68
2022/04/13 11:04:09;;;;;;;5.70;1.95;;;;;;;21.82;34.03;98739.25;2618415;47;20562;-67
2022/04/13 11:06:43;;;;;;;5.63;2.17;;;;;;;21.83;34.17;98744.34;2618195;54;20069;-68
2022/04/13 11:09:21;;;;;;;5.28;2.10;;;;;;;21.85;34.45;98734.13;2617657;39;20422;-67
2022/04/13 11:11:52;;;;;;;5.18;2.40;;;;;;;21.81;34.28;98734.94;2618140;54;20099;-67
2022/04/13 11:14:27;;;;;;;5.97;2.42;;;;;;;21.67;34.18;98727.38;2618045;54;20042;-67
2022/04/13 11:17:28;;;;;;;4.80;2.08;;;;;;;21.68;33.94;98726.31;2617562;54;20121;-67
2022/04/13 11:20:22;;;;;;;5.57;2.58;;;;;;;21.64;34.60;98727.91;2617923;54;20050;-67
2022/04/13 11:23:15;;;;;;;6.82;2.45;;;;;;;21.67;34.26;98716.59;2617789;54;20030;-67
2022/04/13 11:25:46;;;;;;;6.05;2.60;;;;;;;21.59;34.77;98717.13;2617836;54;20037;-68
2022/04/13 11:28:27;;;;;;;6.95;2.45;;;;;;;21.62;34.26;98723.88;2617168;54;20034;-69
2022/04/13 11:31:13;;;;;;;13.23;3.08;;;;;;;21.81;34.94;98722.28;2618131;54;20031;-68
2022/04/13 11:33:51;;;;;;;7.90;3.78;;;;;;;22.11;34.51;98720.69;2617952;54;20071;-68
2022/04/13 11:36:23;;;;;;;10.27;2.38;;;;;;;22.13;34.29;98714.00;2617373;47;20046;-67
2022/04/13 11:39:15;;;;;;;4.18;2.10;;;;;;;22.19;34.45;98720.97;2618292;54;20069;-67
2022/04/13 11:41:53;;;;;;;7.82;2.67;;;;;;;22.41;34.00;98714.47;2623195;39;20421;-67
2022/04/13 11:44:24;;;;;;;4.47;2.75;;;;;;;22.48;33.67;98717.72;2623264;39;20489;-68
2022/04/13 11:47:15;;;;;;;10.82;2.95;;;;;;;22.68;33.33;98717.66;2623122;47;20030;-68
2022/04/13 11:49:57;;;;;;;5.90;2.60;;;;;;;22.70;33.36;98712.81;2623935;54;20566;-67
2022/04/13 11:52:46;;;;;;;3.77;2.13;;;;;;;22.75;33.38;98718.19;2620112;54;20033;-66